Latest Coastal Weather Observations for Bairnsdale

IDV60701

Issued at 9:02 pm EDT Sunday 26 February 2017 (issued every 10 minutes, with the page automatically refreshed every 10 minutes)

About coastal observations | Map of coastal stations | Coastal observations for VIC | Marine services | Other Formats
Station Details ID: 085279 Name: BAIRNSDALE AIRPORT Lat: -37.88 Lon: 147.57 Height: 49.4 m
Data from the previous 72 hours. | See also: Recent months at Bairnsdale
Date/Time
EDT
Temp
°C
Wind Pressure Rain since
9am
mm
Weather Cloud Vis
km
Sea
Height
m
Swell
Dir  Spd
kts
Gust
kts
hPa Trend Height
m
Period
s
Dir
26/08:30pm 17.9 E 13 18 1023.0 - 0.0 - - 10 - - - -
26/08:00pm 18.2 E 16 21 1022.7 - 0.0 - - 10 - - - -
26/07:30pm 18.7 E 16 23 1022.6 - 0.0 - - 10 - - - -
26/07:00pm 19.5 E 17 24 1022.2 - 0.0 - - 10 - - - -
26/06:30pm 20.0 E 17 25 1022.0 - 0.0 - - 10 - - - -
26/06:00pm 20.9 E 18 26 1021.9 - 0.0 - - 10 - - - -
26/05:30pm 21.3 E 20 25 1021.7 - 0.0 - - 10 - - - -
26/05:00pm 21.9 E 17 23 1021.7 - 0.0 - - 10 - - - -
26/04:30pm 22.2 ESE 18 24 1021.9 - 0.0 - - 10 - - - -
26/04:00pm 21.8 E 19 24 1022.0 - 0.0 - - 10 - - - -
26/03:30pm 22.9 E 19 24 1022.2 - 0.0 - - 10 - - - -
26/03:00pm 22.4 E 19 24 1022.3 - 0.0 - - 10 - - - -
26/02:30pm 22.7 E 18 24 1022.5 - 0.0 - - 10 - - - -
26/02:00pm 22.1 E 18 24 1022.7 - 0.0 - - 10 - - - -
26/01:30pm 22.2 ESE 19 25 1022.8 - 0.0 - - 10 - - - -
26/01:00pm 22.0 ESE 19 24 1023.1 - 0.0 - - 10 - - - -
26/12:30pm 22.3 ESE 17 24 1023.5 - 0.0 - - 10 - - - -
26/12:00pm 21.7 ESE 17 22 1023.6 - 0.0 - - 10 - - - -
26/11:30am 22.1 ESE 11 15 1023.7 - 0.0 - - 10 - - - -
26/11:00am 21.4 E 12 17 1023.7 - 0.0 - - 10 - - - -
26/10:30am 21.1 ENE 13 17 1023.8 - 0.0 - - 10 - - - -
26/10:00am 19.8 E 15 18 1023.9 - 0.0 - - 10 - - - -
26/09:30am 19.0 E 13 18 1023.9 - 0.0 - - 10 - - - -
26/09:00am 18.1 ENE 12 19 1024.1 - 0.0 - - 10 - - - -
26/08:30am 17.2 ENE 10 13 1023.9 - 0.0 - - 10 - - - -
26/08:00am 15.3 ENE 6 8 1023.8 - 0.0 - - 10 - - - -
26/07:30am 15.1 E 8 11 1023.6 - 0.0 - - 10 - - - -
26/07:00am 13.3 E 6 8 1023.4 - 0.0 - - 10 - - - -
26/06:30am 13.1 ESE 5 6 1023.2 - 0.0 - - 10 - - - -
26/06:00am 13.8 ENE 7 8 1022.5 - 0.0 - - 10 - - - -
26/05:30am 14.6 ENE 7 9 1022.2 - 0.0 - - 10 - - - -
26/05:00am 15.1 ENE 7 9 1022.2 - 0.0 - Partly cloudy 10 - - - -
26/04:30am 15.7 NE 6 8 1022.4 - 0.0 - Partly cloudy 10 - - - -
26/04:00am 16.6 ENE 7 10 1022.4 - 0.0 - Cloudy 10 - - - -
26/03:30am 16.7 E 11 15 1022.6 - 0.0 - Partly cloudy 10 - - - -
26/03:00am 16.8 E 13 18 1022.8 - 0.0 - Mostly cloudy 10 - - - -
26/02:30am 17.2 E 15 21 1022.7 - 0.0 - Cloudy 10 - - - -
26/02:00am 17.4 E 13 18 1023.1 - 0.0 - Cloudy 10 - - - -
26/01:30am 17.5 E 13 19 1023.4 - 0.0 - Cloudy 10 - - - -
26/01:00am 17.6 ENE 14 19 1023.3 - 0.0 - Cloudy 10 - - - -
26/12:30am 17.7 E 16 21 1023.4 - 0.0 - Cloudy 10 - - - -
26/12:00am 17.6 E 17 22 1023.5 - 0.0 - Mostly cloudy 10 - - - -
 
Date/Time
EDT
Temp
°C
Wind Pressure Rain since
9am
mm
Weather Cloud Vis
km
Sea
Height
m
Swell
Dir  Spd
kts
Gust
kts
hPa Trend Height
m
Period
s
Dir
25/11:30pm 17.6 ENE 16 20 1023.7 - 0.0 - Cloudy 10 - - - -
25/11:00pm 17.4 ENE 19 26 1023.7 - 0.0 - Partly cloudy 10 - - - -
25/10:30pm 17.6 ENE 15 25 1023.6 - 0.0 - Partly cloudy 10 - - - -
25/10:28pm 17.5 ENE 15 25 1023.6 - 0.0 - Partly cloudy 10 - - - -
25/10:00pm 17.4 E 17 25 1023.6 - 0.0 - Partly cloudy 10 - - - -
25/09:42pm 17.3 E 20 26 1023.7 - 0.0 - Partly cloudy 10 - - - -
25/09:30pm 17.2 E 18 25 1023.6 - 0.0 - Partly cloudy 10 - - - -
25/09:00pm 17.2 E 19 26 1023.1 - 0.0 - Mostly cloudy 10 - - - -
25/08:41pm 17.2 E 15 25 1022.9 - 0.0 - Cloudy 10 - - - -
25/08:30pm 17.5 E 14 19 1022.9 - 0.0 - Partly cloudy 10 - - - -
25/08:00pm 17.7 E 18 25 1022.8 - 0.0 - Partly cloudy 10 - - - -
25/07:30pm 17.9 E 15 21 1022.4 - 0.0 - Partly cloudy 10 - - - -
25/07:20pm 17.9 ESE 13 18 1022.3 - 0.0 - Partly cloudy 10 - - - -
25/07:14pm 17.8 ESE 13 18 1022.3 - 0.0 - Partly cloudy 10 - - - -
25/07:00pm 17.6 ESE 13 19 1022.4 - 0.0 - Partly cloudy 10 - - - -
25/06:46pm 17.7 ESE 13 18 1022.3 - 0.0 - Partly cloudy 10 - - - -
25/06:30pm 17.8 ESE 13 18 1022.4 - 0.0 - Partly cloudy 10 - - - -
25/06:00pm 18.4 ESE 13 17 1022.0 - 0.0 - Cloudy 10 - - - -
25/05:30pm 18.4 ESE 15 19 1022.0 - 0.0 - Partly cloudy 10 - - - -
25/05:00pm 19.1 ESE 15 18 1021.9 - 0.0 - Partly cloudy 10 - - - -
25/04:30pm 20.5 ESE 13 19 1021.9 - 0.0 - Partly cloudy 10 - - - -
25/04:00pm 19.9 ESE 13 18 1022.1 - 0.0 - Partly cloudy 10 - - - -
25/03:30pm 19.8 SE 12 18 1022.3 - 0.0 - Partly cloudy 10 - - - -
25/03:00pm 20.6 SE 13 18 1022.3 - 0.0 - Cloudy 10 - - - -
25/02:30pm 21.0 SE 12 18 1022.5 - 0.0 - Partly cloudy 10 - - - -
25/02:00pm 20.2 SE 11 17 1022.9 - 0.0 - Partly cloudy 10 - - - -
25/01:30pm 19.6 SSE 10 14 1023.0 - 0.0 - Partly cloudy 10 - - - -
25/01:00pm 20.5 SSE 11 16 1023.3 - 0.0 - Partly cloudy 10 - - - -
25/12:30pm 19.9 SE 7 13 1023.6 - 0.0 - Cloudy 10 - - - -
25/12:00pm 19.1 S 5 8 1023.9 - 0.0 - Cloudy 10 - - - -
25/11:30am 18.9 SE 4 7 1024.4 - 0.0 - Cloudy 10 - - - -
25/11:00am 18.6 SSW 5 8 1024.6 - 0.0 - Partly cloudy 10 - - - -
25/10:30am 18.7 WSW 7 9 1024.5 - 0.0 - Partly cloudy 10 - - - -
25/10:00am 18.2 WNW 4 8 1024.5 - 0.0 - - 10 - - - -
25/09:30am 16.6 WSW 6 8 1024.7 - 0.0 - Partly cloudy 10 - - - -
25/09:00am 15.7 W 5 7 1024.5 - 0.0 - Cloudy 10 - - - -
25/08:30am 14.7 W 7 10 1024.6 - 0.0 - Cloudy 10 - - - -
25/08:00am 14.1 W 6 9 1024.5 - 0.0 - Cloudy 10 - - - -
25/07:30am 13.4 WNW 6 7 1024.3 - 0.0 - Partly cloudy 10 - - - -
25/07:00am 12.6 WNW 6 7 1024.2 - 0.0 - Partly cloudy 10 - - - -
25/06:30am 12.5 NNW 5 6 1024.0 - 0.0 - Partly cloudy 10 - - - -
25/06:00am 12.4 NW 6 7 1024.0 - 0.0 - Cloudy 10 - - - -
25/05:30am 12.1 NW 6 7 1023.8 - 0.0 - Cloudy 10 - - - -
25/05:00am 11.5 WNW 5 6 1023.7 - 0.0 - Partly cloudy 10 - - - -
25/04:30am 11.2 NW 5 6 1023.7 - 0.0 - Cloudy 10 - - - -
25/04:00am 11.0 WNW 6 7 1023.7 - 0.0 - Partly cloudy 10 - - - -
25/03:30am 11.3 NW 4 5 1023.8 - 0.0 - Cloudy 10 - - - -
25/03:00am 11.1 NW 5 5 1023.8 - 0.0 - Cloudy 10 - - - -
25/02:30am 11.4 W 5 6 1023.9 - 0.0 - Cloudy 10 - - - -
25/02:00am 10.0 WNW 5 6 1024.1 - 0.0 - Partly cloudy 10 - - - -
25/01:30am 10.2 WNW 5 6 1024.3 - 0.0 - - 10 - - - -
25/01:00am 10.4 WNW 6 7 1024.4 - 0.0 - - 10 - - - -
25/12:30am 10.4 NNW 5 7 1024.6 - 0.0 - - 10 - - - -
25/12:00am 11.4 W 4 6 1024.7 - 0.0 - - 10 - - - -
 
Date/Time
EDT
Temp
°C
Wind Pressure Rain since
9am
mm
Weather Cloud Vis
km
Sea
Height
m
Swell
Dir  Spd
kts
Gust
kts
hPa Trend Height
m
Period
s
Dir
24/11:30pm 11.9 WNW 6 7 1024.8 - 0.0 - Partly cloudy 10 - - - -
24/11:00pm 11.9 WNW 5 7 1025.0 - 0.0 - Partly cloudy 10 - - - -
24/10:30pm 12.5 WNW 5 7 1025.0 - 0.0 - - 10 - - - -
24/10:00pm 12.1 WNW 5 6 1025.2 - 0.0 - - 10 - - - -
24/09:30pm 13.2 W 4 5 1025.1 - 0.0 - - 10 - - - -
24/09:00pm 14.1 WSW 4 5 1024.7 - 0.0 - - 10 - - - -
24/08:30pm 14.8 SW 7 8 1024.3 - 0.0 - - 10 - - - -
24/08:00pm 16.4 SSW 12 15 1023.8 - 0.0 - - 10 - - - -
24/07:30pm 17.8 SSW 11 15 1023.5 - 0.0 - - 10 - - - -
24/07:00pm 18.9 SSW 14 20 1023.2 - 0.0 - - 10 - - - -
24/06:30pm 19.2 S 15 19 1023.0 - 0.0 - - 10 - - - -
24/06:00pm 19.9 S 15 19 1023.0 - 0.0 - - 10 - - - -
24/05:30pm 20.1 S 14 18 1022.9 - 0.0 - - 10 - - - -
24/05:00pm 20.5 S 14 17 1022.8 - 0.0 - Partly cloudy 10 - - - -
24/04:30pm 20.4 SSE 13 18 1022.7 - 0.0 - Partly cloudy 10 - - - -
24/04:00pm 19.9 S 13 17 1022.7 - 0.0 - Cloudy 10 - - - -
24/03:30pm 20.0 S 12 18 1022.8 - 0.0 - Partly cloudy 10 - - - -
24/03:00pm 19.8 SSE 9 13 1022.9 - 0.0 - Mostly cloudy 10 - - - -
24/02:30pm 18.9 S 10 13 1023.1 - 0.0 - Partly cloudy 10 - - - -
24/02:00pm 18.6 SSE 11 14 1023.1 - 0.0 - Partly cloudy 10 - - - -
24/01:30pm 18.6 S 10 12 1023.1 - 0.0 - Partly cloudy 10 - - - -
24/01:00pm 18.8 WSW 4 6 1023.1 - 0.0 - Partly cloudy 10 - - - -
24/12:30pm 18.2 SW 5 8 1023.4 - 0.0 - Partly cloudy 10 - - - -
24/12:00pm 18.6 WSW 5 8 1023.5 - 0.0 - Cloudy 10 - - - -
24/11:30am 17.8 WSW 5 6 1023.7 - 0.0 - Partly cloudy 10 - - - -
24/11:00am 17.4 SW 5 9 1023.8 - 0.0 - Cloudy 10 - - - -
24/10:30am 17.2 SW 8 11 1023.9 - 0.0 - Cloudy 10 - - - -
24/10:00am 16.9 SW 9 13 1023.7 - 0.0 - Partly cloudy 10 - - - -
24/09:30am 16.5 SW 7 11 1023.5 - 0.0 - Partly cloudy 10 - - - -
24/09:00am 16.5 SW 6 7 1023.3 - 0.0 - Cloudy 10 - - - -
24/08:30am 16.3 SSW 5 7 1023.2 - 0.0 - Cloudy 10 - - - -
24/08:00am 15.9 SSW 5 6 1023.0 - 0.0 - Cloudy 10 - - - -
24/07:40am 15.9 S 5 7 1022.8 - 0.0 - Partly cloudy 10 - - - -
24/07:30am 15.7 SSW 4 6 1022.6 - 0.0 - Partly cloudy 10 - - - -
24/07:00am 15.5 SW 4 6 1022.5 - 0.0 - Partly cloudy 10 - - - -
24/06:45am 15.6 WNW 3 4 1022.3 - 0.0 - Partly cloudy 10 - - - -
24/06:30am 15.5 WNW 4 5 1022.3 - 0.0 - Partly cloudy 10 - - - -
24/06:00am 15.6 NW 4 5 1022.0 - 0.0 - Cloudy 10 - - - -
24/05:46am 15.6 NW 4 5 1021.9 - 0.0 - Partly cloudy 10 - - - -
24/05:30am 15.6 WNW 3 4 1021.9 - 0.0 - Partly cloudy 7 - - - -
24/05:04am 15.7 W 3 4 1021.7 - 0.0 - Partly cloudy 10 - - - -
24/05:00am 15.8 W 3 4 1021.7 - 0.0 - Partly cloudy 10 - - - -
24/04:30am 15.7 SW 2 3 1021.6 - 0.0 - Cloudy 10 - - - -
24/04:00am 15.6 SW 5 7 1021.7 - 0.0 - Cloudy 9 - - - -
24/03:30am 15.8 WSW 6 8 1021.7 - 0.0 - Partly cloudy 10 - - - -
24/03:00am 16.4 WSW 8 11 1021.8 - 0.0 - Cloudy 10 - - - -
24/02:30am 17.8 S 6 8 1021.7 - 0.0 - Cloudy 10 - - - -
24/02:00am 18.1 SSE 6 7 1021.6 - 0.0 - Cloudy 10 - - - -
24/01:30am 18.2 S 7 8 1021.7 - 0.0 - Cloudy 10 - - - -
24/01:00am 18.4 SSE 7 10 1021.7 - 0.0 - Cloudy 10 - - - -
24/12:30am 18.3 CALM 0 0 1021.6 - 0.0 - Cloudy 10 - - - -
24/12:00am 17.3 CALM 0 0 1021.6 - 0.0 - Cloudy 10 - - - -
 
Date/Time
EDT
Temp
°C
Wind Pressure Rain since
9am
mm
Weather Cloud Vis
km
Sea
Height
m
Swell
Dir  Spd
kts
Gust
kts
hPa Trend Height
m
Period
s
Dir
23/11:30pm 16.6 SSW 2 3 1021.6 - 0.0 - Partly cloudy 10 - - - -
23/11:00pm 16.2 S 3 4 1021.6 - 0.0 - Partly cloudy 10 - - - -
23/10:30pm 14.9 SSW 4 5 1021.8 - 0.0 - Partly cloudy 10 - - - -
23/10:00pm 15.4 SE 1 3 1021.6 - 0.0 - - 10 - - - -
23/09:30pm 17.9 SE 4 5 1021.3 - 0.0 - - 10 - - - -

Other Formats:

Comma delimited format used in spreadsheet applications
http://www.bom.gov.au/fwo/IDV60701/IDV60701.94912.axf

JavaScript Object Notation format (JSON) in row-major order
http://www.bom.gov.au/fwo/IDV60701/IDV60701.94912.json